Time;durP1;ratioP1;P1;durP2;ratioP2;P2;SDS_P1;SDS_P2;PMS_P1;PMS_P2;Temp;Humidity;BMP_temperature;BMP_pressure;BME280_temperature;BME280_humidity;BME280_pressure;Samples;Min_cycle;Max_cycle;Signal;HPM_P1;HPM_P2
2024/01/16 00:01:00;;;;;;;;;;;;;;;;;;6280646;28;19924;-74
2024/01/16 00:04:18;;;;;;;;;;;;;;;;;;6281045;28;20164;-76
2024/01/16 00:07:19;;;;;;;;;;;;;;;;;;6285534;28;19924;-75
2024/01/16 00:10:20;;;;;;;;;;;;;;;;;;6285599;28;19928;-76
2024/01/16 00:13:20;;;;;;;;;;;;;;;;;;6281003;28;19983;-74
2024/01/16 00:16:21;;;;;;;;;;;;;;;;;;6289746;28;19924;-77
2024/01/16 00:19:22;;;;;;;;;;;;;;;;;;6290455;28;20271;-77
2024/01/16 00:22:25;;;;;;;;;;;;;;;;;;6289943;28;19931;-78
2024/01/16 00:25:26;;;;;;;;;;;;;;;;;;6288547;28;19924;-77
2024/01/16 00:28:27;;;;;;;;;;;;;;;;;;6289782;28;19971;-76
2024/01/16 00:31:27;;;;;;;;;;;;;;;;;;6289570;28;19925;-75
2024/01/16 00:34:28;;;;;;;;;;;;;;;;;;6287705;28;19947;-72
2024/01/16 00:37:28;;;;;;;;;;;;;;;;;;6289846;28;20452;-74
2024/01/16 00:40:30;;;;;;;;;;;;;;;;;;6287474;28;20007;-71
2024/01/16 00:43:30;;;;;;;;;;;;;;;;;;6288921;28;20303;-75
2024/01/16 00:46:31;;;;;;;;;;;;;;;;;;6290200;28;20023;-76
2024/01/16 00:49:31;;;;;;;;;;;;;;;;;;6289184;28;19920;-74
2024/01/16 00:52:32;;;;;;;;;;;;;;;;;;6291139;28;20019;-76
2024/01/16 00:55:33;;;;;;;;;;;;;;;;;;6288735;28;19921;-77
2024/01/16 00:58:34;;;;;;;;;;;;;;;;;;6288802;28;19920;-72
2024/01/16 01:01:36;;;;;;;;;;;;;;;;;;6291271;28;19970;-78
2024/01/16 01:04:37;;;;;;;;;;;;;;;;;;6292848;28;20418;-77
2024/01/16 01:07:38;;;;;;;;;;;;;;;;;;6293553;28;19920;-71
2024/01/16 01:10:39;;;;;;;;;;;;;;;;;;6292563;28;19924;-76
2024/01/16 01:13:39;;;;;;;;;;;;;;;;;;6291810;28;19928;-77
2024/01/16 01:16:40;;;;;;;;;;;;;;;;;;6292134;28;19928;-72
2024/01/16 01:19:40;;;;;;;;;;;;;;;;;;6294428;28;19931;-73
2024/01/16 01:22:41;;;;;;;;;;;;;;;;;;6293515;28;19974;-76
2024/01/16 01:25:42;;;;;;;;;;;;;;;;;;6292255;28;19924;-75
2024/01/16 01:28:46;;;;;;;;;;;;;;;;;;6293338;28;19939;-74
2024/01/16 01:31:47;;;;;;;;;;;;;;;;;;6293758;28;20002;-77
2024/01/16 01:34:48;;;;;;;;;;;;;;;;;;6291366;28;20469;-76
2024/01/16 01:37:49;;;;;;;;;;;;;;;;;;6293789;28;20007;-76
2024/01/16 01:40:51;;;;;;;;;;;;;;;;;;6293173;28;20588;-74
2024/01/16 01:43:51;;;;;;;;;;;;;;;;;;6277302;28;19963;-76
2024/01/16 01:46:56;;;;;;;;;;;;;;;;;;6293525;28;20394;-76
2024/01/16 01:49:57;;;;;;;;;;;;;;;;;;6293625;28;19920;-76
2024/01/16 01:52:57;;;;;;;;;;;;;;;;;;6292304;28;19920;-76
2024/01/16 01:55:58;;;;;;;;;;;;;;;;;;6292331;28;19920;-76
2024/01/16 01:58:59;;;;;;;;;;;;;;;;;;6293591;28;19920;-75
2024/01/16 02:02:00;;;;;;;;;;;;;;;;;;6308049;28;19936;-76
2024/01/16 02:05:01;;;;;;;;;;;;;;;;;;6291190;28;19931;-73
2024/01/16 02:08:02;;;;;;;;;;;;;;;;;;6293010;28;19920;-76
2024/01/16 02:11:03;;;;;;;;;;;;;;;;;;6293087;28;20280;-77
2024/01/16 02:14:03;;;;;;;;;;;;;;;;;;6290701;28;20367;-76
2024/01/16 02:17:05;;;;;;;;;;;;;;;;;;6291994;28;20682;-76
2024/01/16 02:20:07;;;;;;;;;;;;;;;;;;6292326;28;19966;-71
2024/01/16 02:23:09;;;;;;;;;;;;;;;;;;6292291;28;19924;-76
2024/01/16 02:26:10;;;;;;;;;;;;;;;;;;6291651;28;19924;-71
2024/01/16 02:29:11;;;;;;;;;;;;;;;;;;6292653;28;20382;-69
2024/01/16 02:32:12;;;;;;;;;;;;;;;;;;6292754;28;19924;-74
2024/01/16 02:35:13;;;;;;;;;;;;;;;;;;6287768;28;19924;-72
2024/01/16 02:38:14;;;;;;;;;;;;;;;;;;6290985;28;19957;-75
2024/01/16 02:41:15;;;;;;;;;;;;;;;;;;6292564;28;19943;-75
2024/01/16 02:44:16;;;;;;;;;;;;;;;;;;6289007;28;20395;-76
2024/01/16 02:47:17;;;;;;;;;;;;;;;;;;6291381;28;19924;-72
2024/01/16 02:50:17;;;;;;;;;;;;;;;;;;6293406;28;20394;-75
2024/01/16 02:53:18;;;;;;;;;;;;;;;;;;6289327;28;20455;-78
2024/01/16 02:56:19;;;;;;;;;;;;;;;;;;6289709;28;19920;-77
2024/01/16 02:59:20;;;;;;;;;;;;;;;;;;6292195;28;20347;-75
2024/01/16 03:02:20;;;;;;;;;;;;;;;;;;6290801;28;19936;-77
2024/01/16 03:05:21;;;;;;;;;;;;;;;;;;6289500;28;19925;-73
2024/01/16 03:08:22;;;;;;;;;;;;;;;;;;6292389;28;19981;-77
2024/01/16 03:11:23;;;;;;;;;;;;;;;;;;6291425;28;20335;-77
2024/01/16 03:14:25;;;;;;;;;;;;;;;;;;6288287;28;19921;-71
2024/01/16 03:17:26;;;;;;;;;;;;;;;;;;6292442;28;19925;-72
2024/01/16 03:20:27;;;;;;;;;;;;;;;;;;6290973;28;19928;-74
2024/01/16 03:23:29;;;;;;;;;;;;;;;;;;6288946;28;20299;-76
2024/01/16 03:26:29;;;;;;;;;;;;;;;;;;6291572;28;19951;-75
2024/01/16 03:29:30;;;;;;;;;;;;;;;;;;6291091;28;19982;-74
2024/01/16 03:32:30;;;;;;;;;;;;;;;;;;6288950;28;19970;-74
2024/01/16 03:35:31;;;;;;;;;;;;;;;;;;6290535;28;19978;-76
2024/01/16 03:38:32;;;;;;;;;;;;;;;;;;6291244;28;19924;-76
2024/01/16 03:41:33;;;;;;;;;;;;;;;;;;6290371;28;19924;-76
2024/01/16 03:44:37;;;;;;;;;;;;;;;;;;6289218;28;20386;-72
2024/01/16 03:47:38;;;;;;;;;;;;;;;;;;6290373;28;19970;-74
2024/01/16 03:50:43;;;;;;;;;;;;;;;;;;6289098;28;19924;-75
2024/01/16 03:53:44;;;;;;;;;;;;;;;;;;6288362;28;19921;-74
2024/01/16 03:56:44;;;;;;;;;;;;;;;;;;6289046;28;19931;-75
2024/01/16 03:59:45;;;;;;;;;;;;;;;;;;6289683;28;19930;-75
2024/01/16 04:02:46;;;;;;;;;;;;;;;;;;6289967;28;19924;-76
2024/01/16 04:05:48;;;;;;;;;;;;;;;;;;6289443;28;19924;-71
2024/01/16 04:08:48;;;;;;;;;;;;;;;;;;6290029;28;19922;-72
2024/01/16 04:11:52;;;;;;;;;;;;;;;;;;6289020;28;19994;-76
2024/01/16 04:14:53;;;;;;;;;;;;;;;;;;6286987;28;19927;-76
2024/01/16 04:17:54;;;;;;;;;;;;;;;;;;6287569;28;20050;-75
2024/01/16 04:20:54;;;;;;;;;;;;;;;;;;6288532;28;19993;-74
2024/01/16 04:23:55;;;;;;;;;;;;;;;;;;6288524;28;19924;-77
2024/01/16 04:26:55;;;;;;;;;;;;;;;;;;6288876;28;19924;-76
2024/01/16 04:29:56;;;;;;;;;;;;;;;;;;6288657;28;20085;-76
2024/01/16 04:32:59;;;;;;;;;;;;;;;;;;6287778;28;19925;-76
2024/01/16 04:36:00;;;;;;;;;;;;;;;;;;6290068;28;19943;-76
2024/01/16 04:39:03;;;;;;;;;;;;;;;;;;6297008;28;19924;-70
2024/01/16 04:42:04;;;;;;;;;;;;;;;;;;6296367;28;19928;-78
2024/01/16 04:45:04;;;;;;;;;;;;;;;;;;6295697;28;19924;-73
2024/01/16 04:48:05;;;;;;;;;;;;;;;;;;6295330;28;19921;-70
2024/01/16 04:51:07;;;;;;;;;;;;;;;;;;6298820;28;19928;-71
2024/01/16 04:54:08;;;;;;;;;;;;;;;;;;6295173;28;19920;-67
2024/01/16 04:57:08;;;;;;;;;;;;;;;;;;6296138;28;19966;-66
2024/01/16 05:00:09;;;;;;;;;;;;;;;;;;6297635;28;20427;-66
2024/01/16 05:03:10;;;;;;;;;;;;;;;;;;6296878;28;20034;-66
2024/01/16 05:06:17;;;;;;;;;;;;;;;;;;6296282;28;19920;-66
2024/01/16 05:09:19;;;;;;;;;;;;;;;;;;6296973;28;20022;-67
2024/01/16 05:12:22;;;;;;;;;;;;;;;;;;6292871;28;19928;-66
2024/01/16 05:15:23;;;;;;;;;;;;;;;;;;6291101;28;19947;-68
2024/01/16 05:18:23;;;;;;;;;;;;;;;;;;6291726;28;19921;-68
2024/01/16 05:21:24;;;;;;;;;;;;;;;;;;6291484;28;19935;-67
2024/01/16 05:24:25;;;;;;;;;;;;;;;;;;6292272;28;20344;-67
2024/01/16 05:27:25;;;;;;;;;;;;;;;;;;6291176;28;20356;-67
2024/01/16 05:30:26;;;;;;;;;;;;;;;;;;6292632;28;19931;-66
2024/01/16 05:33:27;;;;;;;;;;;;;;;;;;6286947;28;19943;-67
2024/01/16 05:36:28;;;;;;;;;;;;;;;;;;6304770;28;20058;-67
2024/01/16 05:39:28;;;;;;;;;;;;;;;;;;6295274;28;19924;-66
2024/01/16 05:42:29;;;;;;;;;;;;;;;;;;6296600;28;20473;-67
2024/01/16 05:45:30;;;;;;;;;;;;;;;;;;6293465;28;19923;-66
2024/01/16 05:48:31;;;;;;;;;;;;;;;;;;6294548;28;19932;-73
2024/01/16 05:51:31;;;;;;;;;;;;;;;;;;6292746;28;19970;-66
2024/01/16 05:54:32;;;;;;;;;;;;;;;;;;6288496;28;20315;-66
2024/01/16 05:57:33;;;;;;;;;;;;;;;;;;6291273;28;19924;-67
2024/01/16 06:00:34;;;;;;;;;;;;;;;;;;6290969;28;20467;-66
2024/01/16 06:03:35;;;;;;;;;;;;;;;;;;6291771;28;19924;-68
2024/01/16 06:06:36;;;;;;;;;;;;;;;;;;6283639;28;19932;-68
2024/01/16 06:09:39;;;;;;;;;;;;;;;;;;6289215;28;19978;-67
2024/01/16 06:12:40;;;;;;;;;;;;;;;;;;6285272;28;19928;-67
2024/01/16 06:15:41;;;;;;;;;;;;;;;;;;6287193;28;19929;-67
2024/01/16 06:18:41;;;;;;;;;;;;;;;;;;6292021;28;19932;-74
2024/01/16 06:21:42;;;;;;;;;;;;;;;;;;6290636;28;19991;-67
2024/01/16 06:24:43;;;;;;;;;;;;;;;;;;6282045;28;19920;-67
2024/01/16 06:27:43;;;;;;;;;;;;;;;;;;6292780;28;19947;-66
2024/01/16 06:30:44;;;;;;;;;;;;;;;;;;6290007;28;19966;-67
2024/01/16 06:33:44;;;;;;;;;;;;;;;;;;6289452;28;19921;-66
2024/01/16 06:36:45;;;;;;;;;;;;;;;;;;6290133;28;19920;-67
2024/01/16 06:39:46;;;;;;;;;;;;;;;;;;6289936;28;19921;-67
2024/01/16 06:42:47;;;;;;;;;;;;;;;;;;6288517;28;19935;-67
2024/01/16 06:45:47;;;;;;;;;;;;;;;;;;6286877;28;20379;-66
2024/01/16 06:48:48;;;;;;;;;;;;;;;;;;6291799;28;20049;-66
2024/01/16 06:51:49;;;;;;;;;;;;;;;;;;6291770;28;20014;-67
2024/01/16 06:54:52;;;;;;;;;;;;;;;;;;6288193;28;20207;-66
2024/01/16 06:57:54;;;;;;;;;;;;;;;;;;6293408;28;19931;-68
2024/01/16 07:00:55;;;;;;;;;;;;;;;;;;6288465;28;19925;-69
2024/01/16 07:03:55;;;;;;;;;;;;;;;;;;6290272;28;20295;-67
2024/01/16 07:06:56;;;;;;;;;;;;;;;;;;6289965;28;19924;-67
2024/01/16 07:09:57;;;;;;;;;;;;;;;;;;6291416;28;20371;-67
2024/01/16 07:12:58;;;;;;;;;;;;;;;;;;6289444;28;19936;-67
2024/01/16 07:15:59;;;;;;;;;;;;;;;;;;6289550;28;19924;-67
2024/01/16 07:19:00;;;;;;;;;;;;;;;;;;6290941;28;20089;-66
2024/01/16 07:22:00;;;;;;;;;;;;;;;;;;6289411;28;19924;-67
2024/01/16 07:25:01;;;;;;;;;;;;;;;;;;6289333;28;19936;-66
2024/01/16 07:28:02;;;;;;;;;;;;;;;;;;6290789;28;20346;-67
2024/01/16 07:31:03;;;;;;;;;;;;;;;;;;6291236;28;20308;-70
2024/01/16 07:34:04;;;;;;;;;;;;;;;;;;6289407;28;19925;-66
2024/01/16 07:37:05;;;;;;;;;;;;;;;;;;6290187;28;20334;-67
2024/01/16 07:40:06;;;;;;;;;;;;;;;;;;6290563;28;19929;-66
2024/01/16 07:43:07;;;;;;;;;;;;;;;;;;6290069;28;19924;-67
2024/01/16 07:46:07;;;;;;;;;;;;;;;;;;6289376;28;19924;-67
2024/01/16 07:49:09;;;;;;;;;;;;;;;;;;6290098;28;19928;-67
2024/01/16 07:52:10;;;;;;;;;;;;;;;;;;6290112;28;19924;-67
2024/01/16 07:55:11;;;;;;;;;;;;;;;;;;6288992;28;19932;-66
2024/01/16 07:58:11;;;;;;;;;;;;;;;;;;6290428;28;19928;-67
2024/01/16 08:01:12;;;;;;;;;;;;;;;;;;6290003;28;19939;-67
2024/01/16 08:04:12;;;;;;;;;;;;;;;;;;6289390;28;19969;-67
2024/01/16 08:07:13;;;;;;;;;;;;;;;;;;6289052;28;20424;-66
2024/01/16 08:10:14;;;;;;;;;;;;;;;;;;6291058;28;19924;-67
2024/01/16 08:13:15;;;;;;;;;;;;;;;;;;6285750;28;19924;-69
2024/01/16 08:16:15;;;;;;;;;;;;;;;;;;6289107;28;19932;-66
2024/01/16 08:19:16;;;;;;;;;;;;;;;;;;6289949;28;19934;-67
2024/01/16 08:22:17;;;;;;;;;;;;;;;;;;6275930;28;20394;-66
2024/01/16 08:25:17;;;;;;;;;;;;;;;;;;6287082;28;19947;-67
2024/01/16 08:28:18;;;;;;;;;;;;;;;;;;6290080;28;19924;-66
2024/01/16 08:31:20;;;;;;;;;;;;;;;;;;6288029;28;19924;-66
2024/01/16 08:34:21;;;;;;;;;;;;;;;;;;6287602;28;20216;-67
2024/01/16 08:37:22;;;;;;;;;;;;;;;;;;6289387;28;19920;-67
2024/01/16 08:40:22;;;;;;;;;;;;;;;;;;6288574;28;19928;-66
2024/01/16 08:43:23;;;;;;;;;;;;;;;;;;6286808;28;20031;-66
2024/01/16 08:46:23;;;;;;;;;;;;;;;;;;6288426;28;19978;-66
2024/01/16 08:49:24;;;;;;;;;;;;;;;;;;6289468;28;20042;-66
2024/01/16 08:52:25;;;;;;;;;;;;;;;;;;6289675;28;20780;-69
2024/01/16 08:55:25;;;;;;;;;;;;;;;;;;6284700;28;20456;-66
2024/01/16 08:58:26;;;;;;;;;;;;;;;;;;6289049;28;19920;-66
2024/01/16 09:01:27;;;;;;;;;;;;;;;;;;6288099;28;19920;-67
2024/01/16 09:04:27;;;;;;;;;;;;;;;;;;6288215;28;20310;-67
2024/01/16 09:07:28;;;;;;;;;;;;;;;;;;6289120;28;19928;-67
2024/01/16 09:10:30;;;;;;;;;;;;;;;;;;6288280;28;19925;-67
2024/01/16 09:13:33;;;;;;;;;;;;;;;;;;6288538;28;19936;-69
2024/01/16 09:16:34;;;;;;;;;;;;;;;;;;6288306;28;19966;-66
2024/01/16 09:19:35;;;;;;;;;;;;;;;;;;6287267;28;19924;-66
2024/01/16 09:22:35;;;;;;;;;;;;;;;;;;6287554;28;20557;-67
2024/01/16 09:25:36;;;;;;;;;;;;;;;;;;6292069;28;19933;-67
2024/01/16 09:28:36;;;;;;;;;;;;;;;;;;6293675;28;19921;-67
2024/01/16 09:31:37;;;;;;;;;;;;;;;;;;6293506;28;19920;-67
2024/01/16 09:34:39;;;;;;;;;;;;;;;;;;6291687;28;20394;-66
2024/01/16 09:37:40;;;;;;;;;;;;;;;;;;6292445;28;20086;-67
2024/01/16 09:40:41;;;;;;;;;;;;;;;;;;6290310;28;19931;-66
2024/01/16 09:43:44;;;;;;;;;;;;;;;;;;6290608;28;19924;-67
2024/01/16 09:46:47;;;;;;;;;;;;;;;;;;6291170;28;19931;-67
2024/01/16 09:49:48;;;;;;;;;;;;;;;;;;6279288;28;19924;-67
2024/01/16 09:52:49;;;;;;;;;;;;;;;;;;6291529;28;19964;-69
2024/01/16 09:55:50;;;;;;;;;;;;;;;;;;6289277;28;20291;-67
2024/01/16 09:58:54;;;;;;;;;;;;;;;;;;6291740;28;19929;-66
2024/01/16 10:01:55;;;;;;;;;;;;;;;;;;6289120;28;19928;-66
2024/01/16 10:04:56;;;;;;;;;;;;;;;;;;6290491;28;19959;-67
2024/01/16 10:07:57;;;;;;;;;;;;;;;;;;6292071;28;19931;-67
2024/01/16 10:10:58;;;;;;;;;;;;;;;;;;6291582;28;20379;-66
2024/01/16 10:13:59;;;;;;;;;;;;;;;;;;6293410;28;19924;-66
2024/01/16 10:17:12;;;;;;;;;;;;;;;;;;6292132;28;19928;-66
2024/01/16 10:20:13;;;;;;;;;;;;;;;;;;6288827;28;19928;-71
2024/01/16 10:23:21;;;;;;;;;;;;;;;;;;6293964;28;19994;-67
2024/01/16 10:26:22;;;;;;;;;;;;;;;;;;6290656;28;19920;-66
2024/01/16 10:29:23;;;;;;;;;;;;;;;;;;6290584;28;19920;-66
2024/01/16 10:32:28;;;;;;;;;;;;;;;;;;6291803;28;19920;-66
2024/01/16 10:35:28;;;;;;;;;;;;;;;;;;6290403;28;20295;-66
2024/01/16 10:38:31;;;;;;;;;;;;;;;;;;6289965;28;19924;-66
2024/01/16 10:41:31;;;;;;;;;;;;;;;;;;6290347;28;19972;-67
2024/01/16 10:44:32;;;;;;;;;;;;;;;;;;6291654;28;20368;-66
2024/01/16 10:47:37;;;;;;;;;;;;;;;;;;6290508;28;19921;-66
2024/01/16 10:50:38;;;;;;;;;;;;;;;;;;6291703;28;19927;-66
2024/01/16 10:53:43;;;;;;;;;;;;;;;;;;6291692;28;19921;-66
2024/01/16 10:56:48;;;;;;;;;;;;;;;;;;6290169;28;19947;-66
2024/01/16 10:59:55;;;;;;;;;;;;;;;;;;6292053;28;19924;-66
2024/01/16 11:03:05;;;;;;;;;;;;;;;;;;6290922;28;19928;-66
2024/01/16 11:06:07;;;;;;;;;;;;;;;;;;6290513;28;19924;-66
2024/01/16 11:09:09;;;;;;;;;;;;;;;;;;6289806;28;19927;-65
2024/01/16 11:12:11;;;;;;;;;;;;;;;;;;6290933;28;21626;-65
2024/01/16 11:15:12;;;;;;;;;;;;;;;;;;6287877;28;20017;-65
2024/01/16 11:18:14;;;;;;;;;;;;;;;;;;6291128;28;20405;-66
2024/01/16 11:21:16;;;;;;;;;;;;;;;;;;6289491;28;19927;-66
2024/01/16 11:24:16;;;;;;;;;;;;;;;;;;6289086;28;20019;-66
2024/01/16 11:27:23;;;;;;;;;;;;;;;;;;6291865;28;19924;-66
2024/01/16 11:30:33;;;;;;;;;;;;;;;;;;6288981;28;20283;-67
2024/01/16 11:33:34;;;;;;;;;;;;;;;;;;6289215;28;20644;-68
2024/01/16 11:36:48;;;;;;;;;;;;;;;;;;6291906;28;19931;-67
2024/01/16 11:39:49;;;;;;;;;;;;;;;;;;6288209;28;19927;-66
2024/01/16 11:42:50;;;;;;;;;;;;;;;;;;6289968;28;19924;-66
2024/01/16 11:45:51;;;;;;;;;;;;;;;;;;6292238;28;19924;-67
2024/01/16 11:49:01;;;;;;;;;;;;;;;;;;6289185;28;19925;-66
2024/01/16 11:52:02;;;;;;;;;;;;;;;;;;6288957;28;19928;-66
2024/01/16 11:55:23;;;;;;;;;;;;;;;;;;6291644;28;20291;-66
2024/01/16 11:58:27;;;;;;;;;;;;;;;;;;6288749;28;19924;-66
2024/01/16 12:01:28;;;;;;;;;;;;;;;;;;6288484;28;19965;-66
2024/01/16 12:04:28;;;;;;;;;;;;;;;;;;6291135;28;19954;-66
2024/01/16 12:07:29;;;;;;;;;;;;;;;;;;6288957;28;19978;-66
2024/01/16 12:10:30;;;;;;;;;;;;;;;;;;6287813;28;19932;-66
2024/01/16 12:13:30;;;;;;;;;;;;;;;;;;6290964;28;20497;-69
2024/01/16 12:16:31;;;;;;;;;;;;;;;;;;6290232;28;20294;-66
2024/01/16 12:19:33;;;;;;;;;;;;;;;;;;6289680;28;19924;-66
2024/01/16 12:22:34;;;;;;;;;;;;;;;;;;6289385;28;19925;-71
2024/01/16 12:25:35;;;;;;;;;;;;;;;;;;6289690;28;20453;-68
2024/01/16 12:28:36;;;;;;;;;;;;;;;;;;6289965;28;20065;-66
2024/01/16 12:31:37;;;;;;;;;;;;;;;;;;6287172;28;19928;-66
2024/01/16 12:34:46;;;;;;;;;;;;;;;;;;6289255;28;19939;-66
2024/01/16 12:38:00;;;;;;;;;;;;;;;;;;6287508;28;20480;-66
2024/01/16 12:41:01;;;;;;;;;;;;;;;;;;6277271;28;19950;-67
2024/01/16 12:44:02;;;;;;;;;;;;;;;;;;6287585;28;19931;-66
2024/01/16 12:47:03;;;;;;;;;;;;;;;;;;6288637;28;19928;-66
2024/01/16 12:50:04;;;;;;;;;;;;;;;;;;6288614;28;20532;-66
2024/01/16 12:53:05;;;;;;;;;;;;;;;;;;6287330;28;19920;-66
2024/01/16 12:56:08;;;;;;;;;;;;;;;;;;6289023;28;19920;-66
2024/01/16 12:59:12;;;;;;;;;;;;;;;;;;6292235;28;19946;-66
2024/01/16 13:02:23;;;;;;;;;;;;;;;;;;6293318;28;19924;-66
2024/01/16 13:05:25;;;;;;;;;;;;;;;;;;6290490;28;19920;-66
2024/01/16 13:08:26;;;;;;;;;;;;;;;;;;6292988;28;19986;-67
2024/01/16 13:11:27;;;;;;;;;;;;;;;;;;6290727;28;19946;-66
2024/01/16 13:14:27;;;;;;;;;;;;;;;;;;6291832;28;19924;-66
2024/01/16 13:17:28;;;;;;;;;;;;;;;;;;6294236;28;19931;-66
2024/01/16 13:20:29;;;;;;;;;;;;;;;;;;6293477;28;20402;-66
2024/01/16 13:23:29;;;;;;;;;;;;;;;;;;6291336;28;19927;-66
2024/01/16 13:26:32;;;;;;;;;;;;;;;;;;6293431;28;19939;-76
2024/01/16 13:29:37;;;;;;;;;;;;;;;;;;6294073;28;19931;-66
2024/01/16 13:32:37;;;;;;;;;;;;;;;;;;6293477;28;19920;-66
2024/01/16 13:35:42;;;;;;;;;;;;;;;;;;6290580;28;19925;-67
2024/01/16 13:38:43;;;;;;;;;;;;;;;;;;6292936;28;19987;-66
2024/01/16 13:41:43;;;;;;;;;;;;;;;;;;6293894;28;19931;-66
2024/01/16 13:44:44;;;;;;;;;;;;;;;;;;6291526;28;20245;-66
2024/01/16 13:47:45;;;;;;;;;;;;;;;;;;6293142;28;19921;-66
2024/01/16 13:50:46;;;;;;;;;;;;;;;;;;6292949;28;19920;-66
2024/01/16 13:53:46;;;;;;;;;;;;;;;;;;6291388;28;20008;-66
2024/01/16 13:56:47;;;;;;;;;;;;;;;;;;6290964;28;19921;-66
2024/01/16 13:59:48;;;;;;;;;;;;;;;;;;6292151;28;19924;-66
2024/01/16 14:02:48;;;;;;;;;;;;;;;;;;6291692;28;19924;-66
2024/01/16 14:05:50;;;;;;;;;;;;;;;;;;6290614;28;19927;-67
2024/01/16 14:08:50;;;;;;;;;;;;;;;;;;6291519;28;19924;-66
2024/01/16 14:11:51;;;;;;;;;;;;;;;;;;6293001;28;19925;-66
2024/01/16 14:14:52;;;;;;;;;;;;;;;;;;6291616;28;19921;-66
2024/01/16 14:17:54;;;;;;;;;;;;;;;;;;6292843;28;19924;-66
2024/01/16 14:20:54;;;;;;;;;;;;;;;;;;6292404;28;20321;-66
2024/01/16 14:23:55;;;;;;;;;;;;;;;;;;6291157;28;19924;-65
2024/01/16 14:26:58;;;;;;;;;;;;;;;;;;6292176;28;19921;-65
2024/01/16 14:29:59;;;;;;;;;;;;;;;;;;6291759;28;19931;-65
2024/01/16 14:33:01;;;;;;;;;;;;;;;;;;6290159;28;20334;-65
2024/01/16 14:36:02;;;;;;;;;;;;;;;;;;6278581;28;19963;-66
2024/01/16 14:39:02;;;;;;;;;;;;;;;;;;6291607;28;19928;-66
2024/01/16 14:42:03;;;;;;;;;;;;;;;;;;6290501;28;19994;-66
2024/01/16 14:45:05;;;;;;;;;;;;;;;;;;6289960;28;19924;-66
2024/01/16 14:48:07;;;;;;;;;;;;;;;;;;6291231;28;19920;-66
2024/01/16 14:51:07;;;;;;;;;;;;;;;;;;6291607;28;20272;-65
2024/01/16 14:54:08;;;;;;;;;;;;;;;;;;6289867;28;19920;-66
2024/01/16 14:57:11;;;;;;;;;;;;;;;;;;6290675;28;19924;-66
2024/01/16 15:00:19;;;;;;;;;;;;;;;;;;6289332;28;20322;-66
2024/01/16 15:03:20;;;;;;;;;;;;;;;;;;6289725;28;20022;-65
2024/01/16 15:06:21;;;;;;;;;;;;;;;;;;6289014;28;19920;-65
2024/01/16 15:09:22;;;;;;;;;;;;;;;;;;6290772;28;19928;-65
2024/01/16 15:12:22;;;;;;;;;;;;;;;;;;6291032;28;19928;-65
2024/01/16 15:15:23;;;;;;;;;;;;;;;;;;6290057;28;19961;-65
2024/01/16 15:18:24;;;;;;;;;;;;;;;;;;6292073;28;19924;-65
2024/01/16 15:21:25;;;;;;;;;;;;;;;;;;6290099;28;19932;-65
2024/01/16 15:24:27;;;;;;;;;;;;;;;;;;6289578;28;20303;-65
2024/01/16 15:27:28;;;;;;;;;;;;;;;;;;6279177;28;20384;-66
2024/01/16 15:30:35;;;;;;;;;;;;;;;;;;6267974;28;19931;-68
2024/01/16 15:33:36;;;;;;;;;;;;;;;;;;6266775;28;19943;-63
2024/01/16 15:36:37;;;;;;;;;;;;;;;;;;6264998;28;20692;-64
2024/01/16 15:39:37;;;;;;;;;;;;;;;;;;6268122;28;20429;-63
2024/01/16 15:42:39;;;;;;;;;;;;;;;;;;6267719;28;19928;-63
2024/01/16 15:45:40;;;;;;;;;;;;;;;;;;6266781;28;19941;-64
2024/01/16 15:48:42;;;;;;;;;;;;;;;;;;6266085;28;19928;-64
2024/01/16 15:51:43;;;;;;;;;;;;;;;;;;6271123;28;20646;-64
2024/01/16 15:54:44;;;;;;;;;;;;;;;;;;6268370;28;19924;-64
2024/01/16 15:57:44;;;;;;;;;;;;;;;;;;6263641;28;20367;-65
2024/01/16 16:00:45;;;;;;;;;;;;;;;;;;6265455;28;19928;-64
2024/01/16 16:03:46;;;;;;;;;;;;;;;;;;6267773;28;19932;-64
2024/01/16 16:06:47;;;;;;;;;;;;;;;;;;6260400;28;19921;-64
2024/01/16 16:09:48;;;;;;;;;;;;;;;;;;6268476;28;19928;-63
2024/01/16 16:12:48;;;;;;;;;;;;;;;;;;6272169;28;19932;-64
2024/01/16 16:15:50;;;;;;;;;;;;;;;;;;6271554;28;19931;-63
2024/01/16 16:18:52;;;;;;;;;;;;;;;;;;6265862;28;20455;-63
2024/01/16 16:21:53;;;;;;;;;;;;;;;;;;6263484;28;19935;-63
2024/01/16 16:24:54;;;;;;;;;;;;;;;;;;6264939;28;20745;-64
2024/01/16 16:27:55;;;;;;;;;;;;;;;;;;6264562;28;19970;-63
2024/01/16 16:30:55;;;;;;;;;;;;;;;;;;6287061;28;20279;-68
2024/01/16 16:33:57;;;;;;;;;;;;;;;;;;6288151;28;20375;-64
2024/01/16 16:36:58;;;;;;;;;;;;;;;;;;6287207;28;20438;-64
2024/01/16 16:39:59;;;;;;;;;;;;;;;;;;6285330;28;19947;-63
2024/01/16 16:43:00;;;;;;;;;;;;;;;;;;6286290;28;19931;-63
2024/01/16 16:46:00;;;;;;;;;;;;;;;;;;6285247;28;19951;-63
2024/01/16 16:49:01;;;;;;;;;;;;;;;;;;6286938;28;20359;-66
2024/01/16 16:52:02;;;;;;;;;;;;;;;;;;6287172;28;19924;-64
2024/01/16 16:55:04;;;;;;;;;;;;;;;;;;6286449;28;19930;-64
2024/01/16 16:58:08;;;;;;;;;;;;;;;;;;6289108;28;20380;-63
2024/01/16 17:01:09;;;;;;;;;;;;;;;;;;6289763;28;19920;-63
2024/01/16 17:04:10;;;;;;;;;;;;;;;;;;6288042;28;19954;-63
2024/01/16 17:07:10;;;;;;;;;;;;;;;;;;6286558;28;20441;-65
2024/01/16 17:10:13;;;;;;;;;;;;;;;;;;6288787;28;20353;-63
2024/01/16 17:13:14;;;;;;;;;;;;;;;;;;6289261;28;19921;-64
2024/01/16 17:16:22;;;;;;;;;;;;;;;;;;6288147;28;19920;-64
2024/01/16 17:19:23;;;;;;;;;;;;;;;;;;6289395;28;19935;-64
2024/01/16 17:22:24;;;;;;;;;;;;;;;;;;6289518;28;20010;-64
2024/01/16 17:25:24;;;;;;;;;;;;;;;;;;6287765;28;19977;-64
2024/01/16 17:28:27;;;;;;;;;;;;;;;;;;6288686;28;19931;-63
2024/01/16 17:31:28;;;;;;;;;;;;;;;;;;6288086;28;20022;-64
2024/01/16 17:34:29;;;;;;;;;;;;;;;;;;6287837;28;20315;-63
2024/01/16 17:37:30;;;;;;;;;;;;;;;;;;6287209;28;20287;-63
2024/01/16 17:40:31;;;;;;;;;;;;;;;;;;6288482;28;20026;-63
2024/01/16 17:43:32;;;;;;;;;;;;;;;;;;6290134;28;20294;-63
2024/01/16 17:46:33;;;;;;;;;;;;;;;;;;6292312;28;19931;-63
2024/01/16 17:49:33;;;;;;;;;;;;;;;;;;6293079;28;19943;-64
2024/01/16 17:52:35;;;;;;;;;;;;;;;;;;6293139;28;19920;-65
2024/01/16 17:55:35;;;;;;;;;;;;;;;;;;6292079;28;19920;-63
2024/01/16 17:58:36;;;;;;;;;;;;;;;;;;6293055;28;20007;-65
2024/01/16 18:01:37;;;;;;;;;;;;;;;;;;6293084;28;20334;-66
2024/01/16 18:04:37;;;;;;;;;;;;;;;;;;6289056;28;20043;-63
2024/01/16 18:07:38;;;;;;;;;;;;;;;;;;6291738;28;19920;-64
2024/01/16 18:10:39;;;;;;;;;;;;;;;;;;6292577;28;19978;-68
2024/01/16 18:13:41;;;;;;;;;;;;;;;;;;6291973;28;19920;-66
2024/01/16 18:16:43;;;;;;;;;;;;;;;;;;6288191;28;20294;-63
2024/01/16 18:19:46;;;;;;;;;;;;;;;;;;6292385;28;19924;-63
2024/01/16 18:22:48;;;;;;;;;;;;;;;;;;6291281;28;19920;-65
2024/01/16 18:25:49;;;;;;;;;;;;;;;;;;6291485;28;19971;-63
2024/01/16 18:28:53;;;;;;;;;;;;;;;;;;6291835;28;20893;-64
2024/01/16 18:31:58;;;;;;;;;;;;;;;;;;6292049;28;19924;-64
2024/01/16 18:34:59;;;;;;;;;;;;;;;;;;6291933;28;19929;-65
2024/01/16 18:37:59;;;;;;;;;;;;;;;;;;6290895;28;19920;-64
2024/01/16 18:41:01;;;;;;;;;;;;;;;;;;6292082;28;20314;-65
2024/01/16 18:44:01;;;;;;;;;;;;;;;;;;6292336;28;19939;-64
2024/01/16 18:47:03;;;;;;;;;;;;;;;;;;6289057;28;20401;-64
2024/01/16 18:50:04;;;;;;;;;;;;;;;;;;6291685;28;19924;-65
2024/01/16 18:53:05;;;;;;;;;;;;;;;;;;6285297;28;19945;-65
2024/01/16 18:56:06;;;;;;;;;;;;;;;;;;6288965;28;20272;-65
2024/01/16 18:59:07;;;;;;;;;;;;;;;;;;6271922;28;20194;-64
2024/01/16 19:02:07;;;;;;;;;;;;;;;;;;6273072;28;20716;-64
2024/01/16 19:05:11;;;;;;;;;;;;;;;;;;6268287;28;19933;-64
2024/01/16 19:08:12;;;;;;;;;;;;;;;;;;6266846;28;19973;-64
2024/01/16 19:11:14;;;;;;;;;;;;;;;;;;6267067;28;20003;-72
2024/01/16 19:14:16;;;;;;;;;;;;;;;;;;6270498;28;20014;-70
2024/01/16 19:17:17;;;;;;;;;;;;;;;;;;6269215;28;20265;-69
2024/01/16 19:20:21;;;;;;;;;;;;;;;;;;6268258;28;19974;-70
2024/01/16 19:23:22;;;;;;;;;;;;;;;;;;6264614;28;19928;-68
2024/01/16 19:26:23;;;;;;;;;;;;;;;;;;6266861;28;19935;-67
2024/01/16 19:29:25;;;;;;;;;;;;;;;;;;6263304;28;19940;-68
2024/01/16 19:32:27;;;;;;;;;;;;;;;;;;6268740;28;19936;-68
2024/01/16 19:35:28;;;;;;;;;;;;;;;;;;6271491;28;19929;-69
2024/01/16 19:38:28;;;;;;;;;;;;;;;;;;6265577;28;19939;-70
2024/01/16 19:41:32;;;;;;;;;;;;;;;;;;6267589;28;19953;-69
2024/01/16 19:44:32;;;;;;;;;;;;;;;;;;6267254;28;19925;-70
2024/01/16 19:47:39;;;;;;;;;;;;;;;;;;6270193;28;20401;-72
2024/01/16 19:50:40;;;;;;;;;;;;;;;;;;6271147;28;19974;-75
2024/01/16 19:53:41;;;;;;;;;;;;;;;;;;6285311;28;20403;-70
2024/01/16 19:56:42;;;;;;;;;;;;;;;;;;6272066;28;19962;-69
2024/01/16 19:59:42;;;;;;;;;;;;;;;;;;6265613;28;19932;-72
2024/01/16 20:02:43;;;;;;;;;;;;;;;;;;6269994;28;19924;-68
2024/01/16 20:05:45;;;;;;;;;;;;;;;;;;6270362;28;20374;-66
2024/01/16 20:08:51;;;;;;;;;;;;;;;;;;6267359;28;19974;-70
2024/01/16 20:11:52;;;;;;;;;;;;;;;;;;6267297;28;20587;-67
2024/01/16 20:14:52;;;;;;;;;;;;;;;;;;6271834;28;19925;-67
2024/01/16 20:17:53;;;;;;;;;;;;;;;;;;6264323;28;19935;-68
2024/01/16 20:20:54;;;;;;;;;;;;;;;;;;6266327;28;19928;-69
2024/01/16 20:23:55;;;;;;;;;;;;;;;;;;6279727;28;19970;-68
2024/01/16 20:26:55;;;;;;;;;;;;;;;;;;6268192;28;19931;-67
2024/01/16 20:29:56;;;;;;;;;;;;;;;;;;6268321;28;19925;-67
2024/01/16 20:32:56;;;;;;;;;;;;;;;;;;6267244;28;20844;-66
2024/01/16 20:35:57;;;;;;;;;;;;;;;;;;6270475;28;20028;-66
2024/01/16 20:38:58;;;;;;;;;;;;;;;;;;6266421;28;19928;-68